Time;durP1;ratioP1;P1;durP2;ratioP2;P2;SDS_P1;SDS_P2;PMS_P1;PMS_P2;Temp;Humidity;BMP_temperature;BMP_pressure;BME280_temperature;BME280_humidity;BME280_pressure;Samples;Min_cycle;Max_cycle;Signal;HPM_P1;HPM_P2
2021/08/17 00:01:48;;;;;;;0.50;0.30;;;22.70;62.60;;;;;;5083826;28;20038;-36
2021/08/17 00:04:15;;;;;;;0.60;0.40;;;22.70;63.50;;;;;;5084665;28;20043;-36
2021/08/17 00:06:41;;;;;;;0.57;0.50;;;22.70;63.40;;;;;;5084378;28;20028;-37
2021/08/17 00:09:07;;;;;;;0.68;0.55;;;22.80;63.20;;;;;;5084506;28;20037;-37
2021/08/17 00:11:35;;;;;;;0.65;0.50;;;22.80;63.30;;;;;;5081368;28;20021;-36
2021/08/17 00:14:01;;;;;;;0.45;0.30;;;22.80;63.40;;;;;;5079863;28;20033;-37
2021/08/17 00:16:27;;;;;;;0.93;0.40;;;22.80;63.50;;;;;;5064308;28;20100;-36
2021/08/17 00:18:54;;;;;;;0.70;0.40;;;22.80;63.50;;;;;;5064534;28;20059;-36
2021/08/17 00:21:20;;;;;;;0.90;0.35;;;22.80;63.50;;;;;;5064374;28;20029;-36
2021/08/17 00:23:46;;;;;;;0.40;0.40;;;22.80;62.80;;;;;;5046289;28;20033;-36
2021/08/17 00:26:12;;;;;;;0.95;0.40;;;22.80;61.60;;;;;;5063897;28;20474;-36
2021/08/17 00:28:38;;;;;;;0.77;0.32;;;22.80;61.20;;;;;;5066897;28;20054;-39
2021/08/17 00:31:04;;;;;;;0.30;0.30;;;22.80;61.20;;;;;;5084187;28;20021;-37
2021/08/17 00:33:30;;;;;;;0.98;0.40;;;22.80;61.40;;;;;;5084200;28;20029;-37
2021/08/17 00:35:57;;;;;;;0.52;0.30;;;22.80;61.80;;;;;;5084042;28;20029;-36
2021/08/17 00:38:23;;;;;;;0.30;0.30;;;22.80;62.30;;;;;;5083830;28;20039;-36
2021/08/17 00:40:49;;;;;;;0.60;0.50;;;22.80;62.90;;;;;;5066046;28;20050;-37
2021/08/17 00:43:16;;;;;;;0.43;0.40;;;22.80;62.60;;;;;;5084145;28;20325;-36
2021/08/17 00:45:42;;;;;;;0.77;0.50;;;22.70;62.70;;;;;;5065397;28;20017;-43
2021/08/17 00:48:08;;;;;;;0.85;0.47;;;22.80;63.00;;;;;;5063519;28;20048;-36
2021/08/17 00:50:35;;;;;;;0.63;0.30;;;22.80;62.90;;;;;;5063931;28;20148;-36
2021/08/17 00:53:01;;;;;;;0.40;0.30;;;22.80;62.80;;;;;;5063941;28;20033;-36
2021/08/17 00:55:27;;;;;;;0.65;0.45;;;22.80;63.00;;;;;;5063643;28;20033;-37
2021/08/17 00:57:54;;;;;;;0.50;0.40;;;22.80;63.30;;;;;;5063475;28;20025;-37
2021/08/17 01:00:20;;;;;;;0.88;0.50;;;22.80;63.40;;;;;;5080445;28;20345;-36
2021/08/17 01:02:46;;;;;;;0.45;0.43;;;22.80;63.50;;;;;;5083630;28;20033;-37
2021/08/17 01:05:13;;;;;;;0.60;0.40;;;22.80;63.50;;;;;;5065619;28;20037;-37
2021/08/17 01:07:39;;;;;;;1.67;0.50;;;22.80;63.50;;;;;;5083057;28;20082;-37
2021/08/17 01:10:06;;;;;;;0.90;0.50;;;22.90;63.70;;;;;;5080128;28;20028;-37
2021/08/17 01:12:39;;;;;;;0.65;0.40;;;22.80;63.80;;;;;;5083068;28;20534;-39
2021/08/17 01:15:06;;;;;;;1.08;0.45;;;22.80;63.90;;;;;;5083090;28;20119;-37
2021/08/17 01:17:32;;;;;;;0.90;0.43;;;22.90;64.10;;;;;;5083095;28;20024;-37
2021/08/17 01:19:58;;;;;;;1.00;0.60;;;22.80;64.00;;;;;;5083170;28;20032;-36
2021/08/17 01:22:24;;;;;;;0.52;0.50;;;22.80;64.00;;;;;;5083391;28;20024;-37
2021/08/17 01:24:50;;;;;;;0.60;0.50;;;22.80;64.10;;;;;;5065939;28;20028;-36
2021/08/17 01:27:16;;;;;;;0.93;0.60;;;22.80;64.10;;;;;;5063056;28;20053;-37
2021/08/17 01:29:43;;;;;;;0.40;0.40;;;22.80;64.20;;;;;;5074880;28;20087;-37
2021/08/17 01:32:12;;;;;;;0.70;0.60;;;22.90;64.30;;;;;;5082970;28;20027;-37
2021/08/17 01:34:39;;;;;;;1.23;0.47;;;22.90;64.40;;;;;;5065563;28;20054;-37
2021/08/17 01:37:06;;;;;;;0.75;0.55;;;22.90;64.30;;;;;;5082615;28;20060;-36
2021/08/17 01:39:32;;;;;;;0.65;0.50;;;22.90;63.80;;;;;;5082772;28;20036;-37
2021/08/17 01:41:58;;;;;;;0.35;0.30;;;22.90;62.60;;;;;;5082824;28;20046;-37
2021/08/17 01:44:24;;;;;;;0.60;0.50;;;22.90;62.20;;;;;;5074895;28;20027;-37
2021/08/17 01:46:50;;;;;;;0.50;0.50;;;22.90;62.30;;;;;;5062514;28;20033;-37
2021/08/17 01:49:17;;;;;;;0.85;0.65;;;22.80;62.60;;;;;;5062352;28;20083;-37
2021/08/17 01:51:45;;;;;;;0.50;0.38;;;22.80;62.50;;;;;;5062643;28;20064;-37
2021/08/17 01:54:13;;;;;;;0.85;0.57;;;22.80;62.70;;;;;;5062446;28;20032;-36
2021/08/17 01:56:39;;;;;;;0.95;0.60;;;22.80;63.40;;;;;;5062593;28;20033;-38
2021/08/17 01:59:05;;;;;;;1.00;0.50;;;22.80;63.60;;;;;;5068982;28;20028;-37
2021/08/17 02:01:32;;;;;;;0.63;0.60;;;22.80;63.80;;;;;;5082570;28;20060;-37
2021/08/17 02:03:58;;;;;;;1.73;0.75;;;22.80;63.80;;;;;;5055469;28;20033;-36
2021/08/17 02:06:24;;;;;;;0.50;0.50;;;22.90;63.80;;;;;;5062486;28;20025;-37
2021/08/17 02:08:50;;;;;;;0.50;0.50;;;22.80;63.70;;;;;;5062086;28;20063;-36
2021/08/17 02:11:16;;;;;;;0.73;0.50;;;22.90;63.90;;;;;;5062222;28;20029;-37
2021/08/17 02:13:43;;;;;;;0.80;0.50;;;22.80;64.10;;;;;;5064304;28;20036;-36
2021/08/17 02:16:09;;;;;;;2.63;0.80;;;22.80;64.20;;;;;;5082102;28;20028;-37
2021/08/17 02:18:37;;;;;;;0.60;0.52;;;22.90;64.40;;;;;;5082363;28;20515;-37
2021/08/17 02:21:04;;;;;;;0.50;0.50;;;22.80;64.40;;;;;;5082651;28;20029;-36
2021/08/17 02:23:30;;;;;;;0.73;0.70;;;22.90;64.50;;;;;;5081333;28;20036;-37
2021/08/17 02:25:57;;;;;;;0.70;0.60;;;22.80;64.60;;;;;;5082330;28;20032;-37
2021/08/17 02:28:23;;;;;;;1.33;0.70;;;22.90;64.70;;;;;;5081065;28;20044;-37
2021/08/17 02:30:50;;;;;;;0.75;0.40;;;22.90;64.60;;;;;;5044104;28;20116;-36
2021/08/17 02:33:16;;;;;;;1.52;0.60;;;22.90;65.40;;;;;;5062433;28;20120;-36
2021/08/17 02:35:42;;;;;;;2.42;0.70;;;22.90;64.70;;;;;;5062074;28;20029;-37
2021/08/17 02:38:09;;;;;;;1.60;0.60;;;22.90;64.80;;;;;;5062072;28;20017;-37
2021/08/17 02:40:35;;;;;;;1.77;0.60;;;22.90;64.90;;;;;;5062296;28;20108;-37
2021/08/17 02:43:02;;;;;;;1.02;0.52;;;22.90;64.80;;;;;;5062110;28;20053;-36
2021/08/17 02:45:28;;;;;;;1.45;0.70;;;22.90;64.90;;;;;;5078204;28;20106;-37
2021/08/17 02:48:00;;;;;;;0.68;0.50;;;22.90;65.00;;;;;;5063777;28;20056;-37
2021/08/17 02:50:26;;;;;;;0.82;0.65;;;23.00;65.10;;;;;;5082058;28;20268;-37
2021/08/17 02:52:53;;;;;;;0.57;0.55;;;23.00;65.10;;;;;;5082082;28;20040;-37
2021/08/17 02:55:19;;;;;;;0.90;0.40;;;22.90;64.60;;;;;;5082032;28;20029;-37
2021/08/17 02:57:56;;;;;;;0.40;0.40;;;22.90;63.70;;;;;;5082079;28;20271;-36
2021/08/17 03:00:23;;;;;;;2.42;0.55;;;22.90;63.00;;;;;;5064138;28;20032;-37
2021/08/17 03:02:49;;;;;;;0.60;0.60;;;22.90;63.10;;;;;;5062095;28;20032;-37
2021/08/17 03:05:15;;;;;;;0.40;0.40;;;22.90;63.30;;;;;;5061731;28;20541;-37
2021/08/17 03:07:55;;;;;;;0.60;0.40;;;22.90;63.50;;;;;;5061833;28;20025;-36
2021/08/17 03:10:22;;;;;;;0.50;0.40;;;22.90;63.70;;;;;;5061793;28;20033;-37
2021/08/17 03:12:48;;;;;;;;;;;22.90;64.20;;;;;;5062083;28;20096;-36
2021/08/17 03:15:14;;;;;;;0.82;0.40;;;22.90;64.20;;;;;;5070312;28;19905;-37
2021/08/17 03:17:41;;;;;;;0.52;0.30;;;22.90;64.40;;;;;;5081995;28;20033;-36
2021/08/17 03:20:08;;;;;;;1.25;0.40;;;22.90;64.40;;;;;;5081427;28;20073;-37
2021/08/17 03:22:35;;;;;;;0.90;0.40;;;22.90;64.50;;;;;;5078625;28;20017;-36
2021/08/17 03:25:01;;;;;;;0.73;0.55;;;22.90;64.70;;;;;;5081740;28;20029;-36
2021/08/17 03:27:27;;;;;;;0.93;0.50;;;22.90;64.80;;;;;;5081597;28;20473;-36
2021/08/17 03:29:54;;;;;;;1.45;0.50;;;22.90;64.80;;;;;;5067937;28;20025;-37
2021/08/17 03:32:20;;;;;;;1.27;0.40;;;22.90;65.00;;;;;;5061856;28;20036;-36
2021/08/17 03:34:46;;;;;;;1.25;0.50;;;22.90;65.00;;;;;;5062676;28;20053;-36
2021/08/17 03:37:12;;;;;;;0.90;0.45;;;22.90;65.00;;;;;;5065254;28;20021;-36
2021/08/17 03:39:38;;;;;;;0.60;0.50;;;22.90;65.90;;;;;;5064832;28;20029;-36
2021/08/17 03:42:04;;;;;;;0.50;0.50;;;22.90;65.20;;;;;;5076558;28;20031;-36
2021/08/17 03:44:30;;;;;;;1.17;0.55;;;22.90;65.40;;;;;;5085263;28;20111;-36
2021/08/17 03:46:57;;;;;;;1.40;0.47;;;22.90;65.40;;;;;;5084938;28;20044;-36
2021/08/17 03:49:23;;;;;;;1.17;0.53;;;22.90;65.60;;;;;;5084752;28;20044;-36
2021/08/17 03:51:49;;;;;;;1.38;0.50;;;22.90;65.60;;;;;;5084932;28;20032;-37
2021/08/17 03:54:15;;;;;;;0.60;0.40;;;22.90;65.70;;;;;;5084945;28;20047;-36
2021/08/17 03:56:41;;;;;;;0.52;0.40;;;22.90;65.60;;;;;;5083793;28;20037;-37
2021/08/17 03:59:07;;;;;;;0.55;0.25;;;23.00;65.70;;;;;;5075113;28;20036;-36
2021/08/17 04:01:33;;;;;;;0.40;0.40;;;23.00;65.70;;;;;;5064749;28;20108;-36
2021/08/17 04:04:00;;;;;;;0.63;0.50;;;23.00;65.70;;;;;;5064668;28;20052;-36
2021/08/17 04:06:26;;;;;;;0.63;0.40;;;23.00;65.70;;;;;;5064731;28;20106;-36
2021/08/17 04:08:53;;;;;;;1.05;0.50;;;23.00;65.80;;;;;;5064692;28;20037;-36
2021/08/17 04:11:19;;;;;;;0.43;0.40;;;23.00;65.80;;;;;;5069292;28;20028;-37
2021/08/17 04:13:45;;;;;;;0.60;0.40;;;23.00;64.90;;;;;;5084704;28;20029;-36
2021/08/17 04:16:11;;;;;;;2.00;0.32;;;22.90;63.90;;;;;;5084413;28;20047;-36
2021/08/17 04:18:37;;;;;;;1.00;0.50;;;23.00;63.80;;;;;;5084433;28;20051;-36
2021/08/17 04:21:04;;;;;;;0.43;0.30;;;22.90;63.80;;;;;;5084421;28;20023;-36
2021/08/17 04:23:30;;;;;;;0.60;0.30;;;22.90;63.90;;;;;;5084456;28;20025;-36
2021/08/17 04:25:56;;;;;;;1.00;0.25;;;22.90;64.10;;;;;;5084219;28;20260;-36
2021/08/17 04:28:22;;;;;;;0.30;0.30;;;22.90;64.20;;;;;;5084163;28;20040;-36
2021/08/17 04:30:48;;;;;;;1.35;0.50;;;22.90;64.40;;;;;;5084024;28;20103;-36
2021/08/17 04:33:14;;;;;;;0.30;0.30;;;22.90;64.70;;;;;;5084127;28;20039;-36
2021/08/17 04:35:40;;;;;;;1.08;0.30;;;22.90;64.80;;;;;;5084180;28;20035;-36
2021/08/17 04:38:10;;;;;;;2.05;0.55;;;22.90;65.00;;;;;;5084123;28;20032;-36
2021/08/17 04:40:36;;;;;;;0.57;0.50;;;22.90;65.10;;;;;;5083897;28;20039;-36
2021/08/17 04:43:02;;;;;;;0.50;0.30;;;23.00;65.30;;;;;;5064565;28;20028;-36
2021/08/17 04:45:28;;;;;;;0.68;0.38;;;22.90;65.40;;;;;;5063988;28;20036;-36
2021/08/17 04:47:54;;;;;;;0.60;0.40;;;22.90;65.40;;;;;;5062734;28;20057;-36
2021/08/17 04:50:21;;;;;;;0.68;0.30;;;22.90;65.40;;;;;;5063600;28;20047;-37
2021/08/17 04:52:47;;;;;;;0.40;0.25;;;22.90;65.60;;;;;;5063913;28;20029;-36
2021/08/17 04:55:13;;;;;;;0.30;0.30;;;22.90;65.60;;;;;;5063703;28;20056;-37
2021/08/17 04:58:06;;;;;;;0.68;0.30;;;22.90;65.70;;;;;;5063472;28;20025;-36
2021/08/17 05:00:32;;;;;;;0.40;0.40;;;22.90;65.70;;;;;;5077727;28;20040;-36
2021/08/17 05:02:58;;;;;;;1.83;0.40;;;23.00;66.20;;;;;;5083599;28;20036;-36
2021/08/17 05:05:25;;;;;;;0.85;0.50;;;22.90;66.20;;;;;;5083629;28;20040;-36
2021/08/17 05:07:51;;;;;;;0.60;0.50;;;22.90;66.20;;;;;;5083309;28;20021;-36
2021/08/17 05:10:19;;;;;;;0.60;0.50;;;23.00;66.30;;;;;;5083380;28;20037;-36
2021/08/17 05:12:46;;;;;;;0.50;0.30;;;23.00;66.30;;;;;;5083222;28;20029;-36
2021/08/17 05:15:13;;;;;;;1.98;0.50;;;23.00;66.50;;;;;;5083146;28;20029;-36
2021/08/17 05:17:39;;;;;;;1.05;0.40;;;23.00;66.30;;;;;;5065180;28;20020;-37
2021/08/17 05:20:07;;;;;;;0.70;0.30;;;23.00;65.30;;;;;;5083363;28;20032;-37
2021/08/17 05:22:33;;;;;;;0.63;0.30;;;23.00;64.40;;;;;;5081201;28;20032;-37
2021/08/17 05:24:59;;;;;;;0.35;0.20;;;22.90;64.10;;;;;;5065150;28;20060;-37
2021/08/17 05:27:25;;;;;;;0.38;0.30;;;22.90;64.00;;;;;;5063019;28;20036;-38
2021/08/17 05:29:52;;;;;;;0.77;0.30;;;22.90;64.30;;;;;;5064307;28;20084;-36
2021/08/17 05:32:19;;;;;;;;;;;22.90;64.80;;;;;;5063217;28;20033;-37
2021/08/17 05:34:45;;;;;;;0.88;0.30;;;22.90;65.60;;;;;;5063023;28;20074;-37
2021/08/17 05:37:14;;;;;;;0.47;0.30;;;22.90;65.70;;;;;;5062841;28;20037;-37
2021/08/17 05:39:41;;;;;;;2.25;0.32;;;22.90;66.00;;;;;;5062665;28;20557;-36
2021/08/17 05:42:11;;;;;;;0.60;0.30;;;22.90;66.10;;;;;;5074272;28;20036;-36
2021/08/17 05:44:41;;;;;;;2.03;0.47;;;22.90;66.20;;;;;;5082618;28;20021;-37
2021/08/17 05:47:07;;;;;;;0.30;0.30;;;22.90;66.30;;;;;;5082594;28;20081;-37
2021/08/17 05:49:36;;;;;;;1.30;0.45;;;22.90;66.50;;;;;;5082783;28;20269;-37
2021/08/17 05:52:03;;;;;;;0.43;0.28;;;22.90;66.30;;;;;;5082700;28;20024;-36
2021/08/17 05:54:30;;;;;;;1.23;0.30;;;22.90;66.10;;;;;;5082683;28;20088;-37
2021/08/17 05:56:58;;;;;;;1.00;0.40;;;22.90;66.00;;;;;;5082533;28;20024;-36
2021/08/17 05:59:25;;;;;;;2.55;0.60;;;22.90;66.70;;;;;;5072948;28;20028;-37
2021/08/17 06:01:55;;;;;;;4.00;0.40;;;23.00;66.80;;;;;;5076626;28;20043;-39
2021/08/17 06:04:22;;;;;;;0.75;0.40;;;22.90;65.90;;;;;;5082691;28;20107;-37
2021/08/17 06:06:48;;;;;;;1.15;0.50;;;22.90;66.00;;;;;;5076391;28;20025;-37
2021/08/17 06:09:15;;;;;;;1.58;0.47;;;22.90;66.00;;;;;;5062147;28;20056;-37
2021/08/17 06:11:41;;;;;;;;;;;22.90;66.10;;;;;;5070972;28;20067;-37
2021/08/17 06:14:07;;;;;;;2.70;0.30;;;22.90;66.00;;;;;;5082277;28;19916;-37
2021/08/17 06:16:33;;;;;;;0.30;0.30;;;23.00;66.20;;;;;;5082488;28;20051;-37
2021/08/17 06:19:00;;;;;;;0.82;0.43;;;22.90;66.20;;;;;;5082227;28;20016;-36
2021/08/17 06:21:26;;;;;;;0.93;0.30;;;22.90;66.40;;;;;;5082426;28;20028;-36
2021/08/17 06:23:53;;;;;;;0.50;0.50;;;22.90;66.40;;;;;;5082123;28;20032;-37
2021/08/17 06:26:19;;;;;;;1.23;0.60;;;22.90;66.50;;;;;;5082242;28;20078;-37
2021/08/17 06:28:45;;;;;;;0.38;0.30;;;22.90;66.60;;;;;;5081845;28;20039;-36
2021/08/17 06:31:21;;;;;;;2.30;0.40;;;23.00;66.90;;;;;;5082086;28;20044;-37
2021/08/17 06:33:48;;;;;;;0.90;0.32;;;23.00;66.90;;;;;;5082241;28;20047;-36
2021/08/17 06:36:14;;;;;;;0.95;0.40;;;23.00;67.10;;;;;;5082167;28;20032;-37
2021/08/17 06:38:42;;;;;;;0.88;0.50;;;23.00;67.00;;;;;;5081829;28;20037;-36
2021/08/17 06:41:08;;;;;;;0.68;0.30;;;23.00;66.80;;;;;;5082041;28;20107;-37
2021/08/17 06:43:35;;;;;;;1.07;0.50;;;23.00;66.70;;;;;;5081934;28;20039;-36
2021/08/17 06:46:01;;;;;;;0.50;0.30;;;23.00;66.70;;;;;;5064025;28;20322;-37
2021/08/17 06:48:27;;;;;;;1.33;0.30;;;23.00;66.70;;;;;;5081740;28;20344;-36
2021/08/17 06:50:53;;;;;;;1.25;0.40;;;23.00;66.70;;;;;;5081923;28;20062;-37
2021/08/17 06:53:20;;;;;;;0.43;0.38;;;23.00;66.70;;;;;;5081998;28;20029;-44
2021/08/17 06:55:46;;;;;;;0.55;0.32;;;23.00;67.50;;;;;;5082038;28;20043;-36
2021/08/17 06:58:13;;;;;;;1.23;0.50;;;23.00;66.90;;;;;;5081911;28;20028;-37
2021/08/17 07:00:43;;;;;;;1.23;0.30;;;23.00;66.90;;;;;;5081485;28;20032;-37
2021/08/17 07:03:09;;;;;;;0.22;0.22;;;23.00;67.00;;;;;;5081935;28;20028;-37
2021/08/17 07:05:37;;;;;;;0.40;0.30;;;23.00;67.00;;;;;;5081895;28;20116;-36
2021/08/17 07:08:04;;;;;;;1.65;0.57;;;23.00;66.90;;;;;;5081661;28;20072;-36
2021/08/17 07:10:30;;;;;;;0.68;0.30;;;23.00;67.00;;;;;;5083635;28;20100;-37
2021/08/17 07:12:56;;;;;;;2.65;0.40;;;23.00;67.20;;;;;;5066500;28;20052;-36
2021/08/17 07:15:22;;;;;;;0.73;0.40;;;23.00;66.90;;;;;;5065403;28;20048;-37
2021/08/17 07:17:48;;;;;;;0.52;0.30;;;23.00;65.90;;;;;;5065429;28;20037;-37
2021/08/17 07:20:17;;;;;;;0.95;0.35;;;23.00;65.10;;;;;;5080423;28;20024;-37
2021/08/17 07:22:44;;;;;;;0.22;0.20;;;23.00;65.20;;;;;;5085396;28;20115;-36
2021/08/17 07:25:10;;;;;;;1.20;0.40;;;23.00;65.10;;;;;;5085213;28;20024;-37
2021/08/17 07:27:36;;;;;;;1.05;0.30;;;23.00;65.30;;;;;;5085034;28;20029;-36
2021/08/17 07:30:04;;;;;;;0.40;0.30;;;23.00;65.40;;;;;;5070211;28;20032;-37
2021/08/17 07:32:30;;;;;;;0.55;0.35;;;23.00;65.50;;;;;;5066190;28;20029;-37
2021/08/17 07:34:56;;;;;;;2.58;0.30;;;23.00;65.60;;;;;;5064849;28;20371;-36
2021/08/17 07:37:22;;;;;;;0.65;0.30;;;23.00;65.70;;;;;;5065091;28;20021;-36
2021/08/17 07:39:48;;;;;;;0.50;0.40;;;23.00;65.90;;;;;;5064826;28;20115;-36
2021/08/17 07:42:14;;;;;;;0.32;0.30;;;23.00;66.00;;;;;;5077456;28;20063;-36
2021/08/17 07:44:41;;;;;;;0.75;0.45;;;23.00;66.20;;;;;;5085201;28;20074;-37
2021/08/17 07:47:07;;;;;;;0.70;0.30;;;23.00;66.30;;;;;;5084621;28;20049;-37
2021/08/17 07:49:33;;;;;;;0.90;0.30;;;23.00;66.30;;;;;;5084605;28;20040;-37
2021/08/17 07:51:59;;;;;;;1.30;0.40;;;23.00;66.50;;;;;;5084889;28;20031;-36
2021/08/17 07:54:27;;;;;;;0.50;0.30;;;23.00;66.70;;;;;;5084883;28;20031;-37
2021/08/17 07:56:53;;;;;;;0.93;0.30;;;23.00;66.90;;;;;;5084848;28;20035;-37
2021/08/17 07:59:19;;;;;;;1.52;0.40;;;23.00;67.00;;;;;;5084553;28;20029;-37
2021/08/17 08:01:45;;;;;;;0.40;0.27;;;23.00;67.10;;;;;;5083120;28;20028;-37
2021/08/17 08:04:12;;;;;;;0.98;0.40;;;23.00;67.30;;;;;;5084742;28;20024;-37
2021/08/17 08:06:38;;;;;;;0.50;0.20;;;23.00;67.10;;;;;;5084423;28;20028;-36
2021/08/17 08:09:04;;;;;;;0.75;0.50;;;23.00;66.00;;;;;;5084648;28;20407;-37
2021/08/17 08:11:30;;;;;;;0.70;0.30;;;22.90;65.10;;;;;;5077515;28;20035;-37
2021/08/17 08:13:57;;;;;;;0.38;0.20;;;22.90;64.80;;;;;;5064130;28;20037;-37
2021/08/17 08:16:24;;;;;;;0.63;0.30;;;22.90;65.00;;;;;;5064228;28;20111;-37
2021/08/17 08:18:50;;;;;;;0.55;0.20;;;22.90;65.10;;;;;;5046550;28;20037;-37
2021/08/17 08:21:16;;;;;;;0.40;0.20;;;22.90;65.20;;;;;;5062848;28;20033;-37
2021/08/17 08:23:43;;;;;;;0.40;0.25;;;22.90;65.30;;;;;;5064165;28;20051;-37
2021/08/17 08:26:09;;;;;;;0.30;0.20;;;22.90;65.40;;;;;;5064132;28;20083;-37
2021/08/17 08:28:35;;;;;;;0.47;0.30;;;22.90;65.70;;;;;;5066546;28;20079;-36
2021/08/17 08:31:01;;;;;;;1.15;0.40;;;22.90;65.80;;;;;;5084036;28;20025;-37
2021/08/17 08:33:27;;;;;;;0.22;0.20;;;22.90;66.00;;;;;;5084070;28;20096;-37
2021/08/17 08:35:53;;;;;;;0.70;0.30;;;22.90;66.10;;;;;;5083890;28;20029;-37
2021/08/17 08:38:20;;;;;;;0.52;0.30;;;22.90;66.40;;;;;;5083808;28;20029;-36
2021/08/17 08:40:47;;;;;;;2.05;0.40;;;23.00;66.70;;;;;;5083769;28;20021;-37
2021/08/17 08:43:13;;;;;;;0.60;0.40;;;22.90;66.90;;;;;;5065797;28;20066;-36
2021/08/17 08:45:39;;;;;;;0.30;0.30;;;22.90;67.20;;;;;;5083699;28;20035;-37
2021/08/17 08:48:07;;;;;;;0.35;0.30;;;22.90;67.30;;;;;;5083511;28;20044;-36
2021/08/17 08:50:34;;;;;;;0.20;0.20;;;22.90;67.40;;;;;;5083528;28;20033;-37
2021/08/17 08:53:00;;;;;;;0.82;0.20;;;22.90;67.50;;;;;;5083654;28;20028;-37
2021/08/17 08:55:26;;;;;;;0.45;0.20;;;22.90;67.50;;;;;;5083603;28;20043;-36
2021/08/17 08:57:53;;;;;;;0.90;0.30;;;22.90;68.30;;;;;;5065679;28;20031;-36
2021/08/17 09:00:19;;;;;;;0.77;0.30;;;22.90;67.50;;;;;;5083499;28;20032;-37
2021/08/17 09:02:45;;;;;;;1.00;0.30;;;23.00;67.60;;;;;;5083305;28;20074;-36
2021/08/17 09:05:11;;;;;;;1.77;0.40;;;23.00;67.60;;;;;;5083249;28;20032;-37
2021/08/17 09:07:48;;;;;;;1.17;0.30;;;23.00;67.70;;;;;;5083348;28;20029;-37
2021/08/17 09:10:15;;;;;;;0.40;0.30;;;23.00;67.70;;;;;;5083328;28;20028;-37
2021/08/17 09:12:43;;;;;;;0.40;0.30;;;23.00;67.70;;;;;;5082868;28;20031;-36
2021/08/17 09:15:17;;;;;;;1.58;0.40;;;23.00;67.70;;;;;;5083152;28;20028;-36
2021/08/17 09:17:43;;;;;;;3.10;0.60;;;23.00;67.80;;;;;;5083136;28;20032;-37
2021/08/17 09:20:27;;;;;;;0.43;0.25;;;23.00;67.70;;;;;;5083325;28;20021;-37
2021/08/17 09:22:53;;;;;;;0.30;0.30;;;23.00;67.70;;;;;;5082876;28;20489;-37
2021/08/17 09:25:19;;;;;;;0.85;0.30;;;23.00;67.90;;;;;;5061813;28;20031;-37
2021/08/17 09:27:45;;;;;;;1.02;0.20;;;23.00;68.00;;;;;;5047586;28;20111;-37
2021/08/17 09:30:13;;;;;;;1.48;0.30;;;23.00;68.50;;;;;;5082639;28;20044;-37
2021/08/17 09:32:56;;;;;;;0.17;0.17;;;23.00;67.40;;;;;;5082339;28;20028;-36
2021/08/17 09:35:23;;;;;;;0.60;0.22;;;23.00;66.40;;;;;;5082809;28;20025;-37
2021/08/17 09:38:09;;;;;;;0.20;0.20;;;23.00;65.90;;;;;;5082738;28;20025;-37
2021/08/17 09:40:35;;;;;;;1.80;0.30;;;23.00;65.70;;;;;;5082790;28;20351;-37
2021/08/17 09:43:18;;;;;;;0.60;0.30;;;23.00;66.00;;;;;;5082431;28;20094;-37
2021/08/17 09:45:45;;;;;;;1.13;0.30;;;23.00;66.10;;;;;;5082579;28;20269;-37
2021/08/17 09:48:15;;;;;;;0.30;0.30;;;23.00;66.10;;;;;;5082270;28;20063;-37
2021/08/17 09:50:42;;;;;;;1.55;0.20;;;23.00;66.20;;;;;;5082525;28;20037;-37
2021/08/17 09:53:13;;;;;;;0.30;0.30;;;23.00;66.40;;;;;;5082358;28;20032;-37
2021/08/17 09:55:44;;;;;;;0.68;0.20;;;22.90;66.50;;;;;;5082269;28;20029;-37
2021/08/17 09:58:17;;;;;;;0.40;0.20;;;23.00;66.80;;;;;;5082355;28;20032;-37
2021/08/17 10:00:44;;;;;;;1.15;0.30;;;23.00;67.00;;;;;;5082302;28;20021;-37
2021/08/17 10:03:10;;;;;;;2.40;0.43;;;23.00;67.20;;;;;;5082515;28;20036;-37
2021/08/17 10:05:37;;;;;;;1.02;0.30;;;23.00;67.40;;;;;;5081982;28;20100;-36
2021/08/17 10:08:04;;;;;;;0.35;0.30;;;23.00;67.60;;;;;;5064342;28;20044;-36
2021/08/17 10:10:30;;;;;;;0.93;0.30;;;23.00;67.70;;;;;;5048150;28;20762;-37
2021/08/17 10:12:56;;;;;;;1.70;0.30;;;23.00;68.00;;;;;;5077808;28;20066;-37
2021/08/17 10:15:23;;;;;;;0.30;0.30;;;23.00;68.20;;;;;;5081933;28;20040;-37
2021/08/17 10:17:49;;;;;;;0.63;0.20;;;23.00;68.40;;;;;;5064223;28;20031;-37
2021/08/17 10:20:16;;;;;;;0.35;0.17;;;23.00;67.30;;;;;;5082197;28;20108;-37
2021/08/17 10:22:42;;;;;;;0.25;0.20;;;22.90;66.30;;;;;;5064162;28;20025;-37
2021/08/17 10:25:17;;;;;;;0.80;0.20;;;22.90;65.50;;;;;;5081780;28;20043;-37
2021/08/17 10:27:43;;;;;;;0.15;0.10;;;22.90;65.50;;;;;;5082087;28;20028;-36
2021/08/17 10:30:21;;;;;;;0.63;0.22;;;22.90;65.50;;;;;;5066339;28;20037;-37
2021/08/17 10:32:56;;;;;;;;;;;23.00;65.80;;;;;;5062413;28;20029;-37
2021/08/17 10:38:12;;;;;;;0.20;0.20;;;22.90;66.10;;;;;;5062068;28;20429;-37
2021/08/17 10:40:51;;;;;;;0.10;0.10;;;22.90;66.20;;;;;;5062039;28;20021;-36
2021/08/17 10:43:43;;;;;;;0.70;0.20;;;22.90;66.50;;;;;;5061803;28;20101;-37
2021/08/17 10:46:10;;;;;;;0.82;0.20;;;22.90;66.80;;;;;;5064764;28;20544;-37
2021/08/17 10:48:51;;;;;;;1.17;0.38;;;22.90;67.00;;;;;;5065771;28;20056;-37
2021/08/17 10:51:23;;;;;;;0.45;0.20;;;22.90;67.30;;;;;;5065818;28;20056;-37
2021/08/17 10:53:53;;;;;;;0.47;0.30;;;22.90;68.00;;;;;;5065726;28;20040;-37
2021/08/17 10:56:23;;;;;;;0.50;0.30;;;22.90;68.20;;;;;;5047654;28;20737;-37
2021/08/17 10:58:51;;;;;;;0.60;0.40;;;22.90;68.60;;;;;;5070234;28;20053;-37
2021/08/17 11:01:36;;;;;;;0.43;0.30;;;22.90;68.80;;;;;;5085604;28;20024;-37
2021/08/17 11:04:10;;;;;;;1.48;0.20;;;22.90;67.50;;;;;;5085663;28;20036;-37
2021/08/17 11:06:44;;;;;;;1.13;0.30;;;22.90;66.40;;;;;;5085319;28;20032;-37
2021/08/17 11:09:14;;;;;;;0.68;0.30;;;22.90;65.70;;;;;;5085618;28;20040;-37
2021/08/17 11:11:47;;;;;;;2.92;0.10;;;22.90;65.60;;;;;;5077440;28;20047;-37
2021/08/17 11:14:18;;;;;;;0.43;0.30;;;22.90;65.70;;;;;;5065442;28;20033;-37
2021/08/17 11:16:52;;;;;;;0.47;0.20;;;22.90;65.80;;;;;;5064957;28;20063;-36
2021/08/17 11:19:19;;;;;;;0.40;0.22;;;22.90;66.00;;;;;;5065389;28;20036;-37
2021/08/17 11:21:50;;;;;;;0.45;0.20;;;22.90;66.40;;;;;;5065441;28;20029;-37
2021/08/17 11:24:25;;;;;;;0.43;0.28;;;22.90;66.50;;;;;;5065238;28;20588;-37
2021/08/17 11:26:58;;;;;;;0.57;0.30;;;22.90;66.60;;;;;;5075725;28;20169;-37
2021/08/17 11:29:26;;;;;;;0.50;0.30;;;22.90;67.10;;;;;;5075467;28;20029;-37
2021/08/17 11:31:52;;;;;;;0.28;0.20;;;22.80;67.60;;;;;;5071373;28;20035;-37
2021/08/17 11:34:22;;;;;;;2.47;0.20;;;22.80;68.10;;;;;;5084975;28;20032;-37
2021/08/17 11:36:53;;;;;;;0.65;0.30;;;22.90;68.20;;;;;;5084989;28;20497;-37
2021/08/17 11:39:27;;;;;;;0.20;0.20;;;22.90;68.40;;;;;;5085183;28;20493;-37
2021/08/17 11:41:53;;;;;;;0.73;0.28;;;22.80;68.50;;;;;;5084928;28;20027;-37
2021/08/17 11:44:20;;;;;;;0.20;0.20;;;22.90;68.80;;;;;;5066735;28;20031;-37
2021/08/17 11:46:46;;;;;;;0.20;0.20;;;22.80;69.00;;;;;;5084516;28;20024;-39
2021/08/17 11:49:30;;;;;;;0.20;0.20;;;22.90;68.90;;;;;;5084814;28;20036;-37
2021/08/17 11:52:09;;;;;;;1.05;0.43;;;22.90;68.40;;;;;;5084987;28;20401;-37
2021/08/17 11:54:54;;;;;;;0.77;0.40;;;22.90;68.50;;;;;;5084752;28;20036;-37
2021/08/17 11:57:29;;;;;;;0.40;0.30;;;22.90;68.20;;;;;;5084327;28;20096;-37
2021/08/17 11:59:55;;;;;;;0.50;0.25;;;22.90;68.20;;;;;;5084599;28;20072;-37
2021/08/17 12:02:24;;;;;;;1.08;0.30;;;22.90;68.20;;;;;;5066823;28;20031;-37
2021/08/17 12:04:55;;;;;;;0.95;0.30;;;22.90;68.30;;;;;;5084423;28;20055;-37
2021/08/17 12:07:22;;;;;;;0.43;0.25;;;22.90;68.20;;;;;;5084471;28;20020;-37
2021/08/17 12:09:48;;;;;;;0.40;0.40;;;22.90;68.30;;;;;;5084466;28;20040;-37
2021/08/17 12:12:17;;;;;;;0.80;0.30;;;22.90;68.40;;;;;;5084497;28;20080;-37
2021/08/17 12:14:43;;;;;;;0.20;0.20;;;22.90;68.50;;;;;;5084490;28;20047;-37
2021/08/17 12:17:10;;;;;;;0.50;0.20;;;22.90;68.70;;;;;;5084053;28;20440;-37
2021/08/17 12:19:43;;;;;;;;;;;22.90;68.80;;;;;;5084209;28;20046;-37
2021/08/17 12:22:26;;;;;;;0.38;0.30;;;22.90;69.20;;;;;;5084303;28;19904;-37
2021/08/17 12:24:53;;;;;;;0.20;0.20;;;22.90;69.10;;;;;;5084211;28;20031;-37
2021/08/17 12:27:24;;;;;;;0.40;0.20;;;22.90;67.90;;;;;;5084252;28;20038;-36
2021/08/17 12:29:50;;;;;;;0.20;0.10;;;22.90;66.90;;;;;;5071067;28;20087;-36
2021/08/17 12:32:18;;;;;;;0.55;0.20;;;22.90;66.30;;;;;;5064039;28;20048;-37
2021/08/17 12:34:45;;;;;;;0.38;0.20;;;22.90;66.10;;;;;;5064037;28;20033;-37
2021/08/17 12:37:28;;;;;;;0.15;0.10;;;22.90;66.30;;;;;;5063812;28;20025;-37
2021/08/17 12:39:59;;;;;;;1.20;0.20;;;22.90;66.30;;;;;;5063841;28;20040;-37
2021/08/17 12:42:25;;;;;;;0.57;0.20;;;22.90;66.60;;;;;;5078162;28;20048;-37
2021/08/17 12:44:52;;;;;;;0.40;0.30;;;22.90;66.90;;;;;;5083799;28;20036;-37
2021/08/17 12:47:23;;;;;;;1.08;0.20;;;22.90;67.10;;;;;;5083390;28;20523;-38
2021/08/17 12:49:50;;;;;;;0.95;0.20;;;22.90;67.30;;;;;;5083774;28;20063;-37
2021/08/17 12:52:19;;;;;;;0.50;0.25;;;22.90;67.40;;;;;;5083729;28;20025;-37
2021/08/17 12:54:45;;;;;;;0.63;0.20;;;22.90;67.60;;;;;;5083558;28;20036;-37